Time;durP1;ratioP1;P1;durP2;ratioP2;P2;SDS_P1;SDS_P2;PMS_P1;PMS_P2;Temp;Humidity;BMP_temperature;BMP_pressure;BME280_temperature;BME280_humidity;BME280_pressure;Samples;Min_cycle;Max_cycle;Signal;HPM_P1;HPM_P2
2023/12/30 00:01:15;;;;;;;3.20;0.85;;;;;;;11.27;65.37;96972.16;4913851;28;20540;-80
2023/12/30 00:03:41;;;;;;;2.63;1.00;;;;;;;11.40;64.47;96976.13;4890502;28;20183;-80
2023/12/30 00:06:07;;;;;;;2.10;0.90;;;;;;;11.47;64.69;96996.75;4891149;28;20272;-80
2023/12/30 00:08:32;;;;;;;3.50;1.13;;;;;;;11.46;64.86;96995.94;4905921;28;20287;-80
2023/12/30 00:10:57;;;;;;;1.30;0.80;;;;;;;11.48;65.01;96995.69;4890992;28;20274;-81
2023/12/30 00:13:23;;;;;;;3.17;0.80;;;;;;;11.40;65.70;96982.13;4891014;28;20200;-80
2023/12/30 00:15:48;;;;;;;3.70;0.80;;;;;;;11.42;65.26;96998.28;4909911;28;20218;-80
2023/12/30 00:18:15;;;;;;;2.30;0.98;;;;;;;11.22;66.52;97001.59;4926854;28;20202;-80
2023/12/30 00:20:40;;;;;;;3.90;0.98;;;;;;;11.29;66.16;97009.16;4906454;28;20369;-80
2023/12/30 00:23:05;;;;;;;2.72;0.60;;;;;;;11.40;65.44;97012.63;4906875;28;20166;-82
2023/12/30 00:25:31;;;;;;;2.75;1.08;;;;;;;11.35;66.31;97015.97;4897856;28;20326;-80
2023/12/30 00:27:56;;;;;;;2.05;1.00;;;;;;;11.42;66.23;97011.31;4912899;28;20210;-80
2023/12/30 00:30:22;;;;;;;3.13;1.23;;;;;;;11.47;65.91;97012.41;4922936;28;20164;-80
2023/12/30 00:32:47;;;;;;;2.25;0.80;;;;;;;11.43;66.38;97005.09;4899285;28;20175;-79
2023/12/30 00:35:12;;;;;;;2.83;0.75;;;;;;;11.38;66.63;96999.84;4886670;28;20846;-79
2023/12/30 00:37:38;;;;;;;1.83;0.80;;;;;;;11.50;65.34;96996.22;4892026;28;20218;-80
2023/12/30 00:40:04;;;;;;;4.47;1.10;;;;;;;11.44;66.25;96998.03;4930571;28;20197;-79
2023/12/30 00:42:30;;;;;;;1.98;0.90;;;;;;;11.32;66.49;96994.84;4902370;28;20202;-79
2023/12/30 00:44:55;;;;;;;1.67;0.85;;;;;;;11.40;66.51;96999.59;4885332;28;20203;-79
2023/12/30 00:47:20;;;;;;;2.47;1.77;;;;;;;11.42;66.98;97005.34;4880246;28;20196;-80
2023/12/30 00:49:46;;;;;;;1.52;0.80;;;;;;;11.21;68.06;97009.66;4925543;28;20334;-79
2023/12/30 00:52:11;;;;;;;2.13;1.02;;;;;;;11.37;67.16;97016.50;4892862;28;20261;-80
2023/12/30 00:54:36;;;;;;;1.40;1.08;;;;;;;11.34;67.17;97019.63;4892954;28;20247;-79
2023/12/30 00:57:02;;;;;;;3.35;1.77;;;;;;;11.39;66.95;97019.66;4899834;28;20204;-80
2023/12/30 00:59:28;;;;;;;1.60;1.50;;;;;;;11.29;66.66;97011.78;4892294;28;20171;-79
2023/12/30 01:01:53;;;;;;;3.30;1.20;;;;;;;11.29;67.70;97016.19;4904592;28;20687;-79
2023/12/30 01:04:18;;;;;;;2.95;1.30;;;;;;;11.40;66.93;97017.84;4929724;28;20201;-79
2023/12/30 01:06:44;;;;;;;2.80;1.60;;;;;;;11.47;67.42;97026.22;4893367;28;20742;-80
2023/12/30 01:09:09;;;;;;;2.90;1.50;;;;;;;11.54;67.25;97026.00;4896080;28;20276;-79
2023/12/30 01:11:34;;;;;;;3.72;1.55;;;;;;;11.53;67.58;97024.41;4875306;28;20418;-80
2023/12/30 01:14:00;;;;;;;2.00;1.35;;;;;;;11.55;67.27;97035.38;4899101;28;20248;-80
2023/12/30 01:16:25;;;;;;;3.05;1.60;;;;;;;11.54;67.64;97033.81;4909578;28;20265;-79
2023/12/30 01:18:51;;;;;;;3.97;1.88;;;;;;;11.54;66.95;97026.00;4909725;28;20288;-79
2023/12/30 01:21:17;;;;;;;4.40;1.90;;;;;;;11.48;67.43;97029.59;4910025;28;20193;-80
2023/12/30 01:23:43;;;;;;;2.58;1.73;;;;;;;11.65;66.88;97030.19;4910320;28;20562;-80
2023/12/30 01:26:08;;;;;;;3.30;1.80;;;;;;;11.59;66.88;97031.22;4910193;28;20190;-80
2023/12/30 01:28:34;;;;;;;2.88;1.45;;;;;;;11.54;66.80;97033.81;4878541;28;20207;-79
2023/12/30 01:30:59;;;;;;;2.85;1.30;;;;;;;11.59;67.38;97037.22;4893937;28;20695;-79
2023/12/30 01:33:25;;;;;;;1.92;1.65;;;;;;;11.52;66.72;97021.03;4913924;28;20250;-80
2023/12/30 01:35:50;;;;;;;2.50;1.27;;;;;;;11.49;67.12;97026.75;4884354;28;20622;-80
2023/12/30 01:38:15;;;;;;;3.00;1.52;;;;;;;11.51;66.67;97029.09;4917344;28;20680;-81
2023/12/30 01:40:41;;;;;;;2.10;1.10;;;;;;;11.54;66.78;97028.59;4894397;28;20206;-79
2023/12/30 01:43:06;;;;;;;2.72;1.27;;;;;;;11.63;65.36;97032.28;4894476;28;20215;-79
2023/12/30 01:45:32;;;;;;;3.60;1.40;;;;;;;11.56;66.16;97036.94;4920037;28;20278;-80
2023/12/30 01:47:58;;;;;;;6.22;1.50;;;;;;;11.59;65.67;97037.22;4916761;28;20209;-79
2023/12/30 01:50:23;;;;;;;2.13;1.50;;;;;;;11.68;66.01;97041.94;4893264;28;20321;-79
2023/12/30 01:52:49;;;;;;;2.25;1.23;;;;;;;11.75;64.95;97042.50;4897150;28;20179;-79
2023/12/30 01:55:16;;;;;;;1.90;0.98;;;;;;;11.71;65.54;97031.03;4877686;28;20248;-79
2023/12/30 01:57:43;;;;;;;2.72;1.10;;;;;;;11.69;65.37;97023.44;4909034;28;20796;-80
2023/12/30 02:00:08;;;;;;;3.30;1.52;;;;;;;11.50;66.06;97027.50;4926289;28;20702;-80
2023/12/30 02:02:34;;;;;;;2.33;1.00;;;;;;;11.54;65.47;97034.59;4909094;28;20295;-79
2023/12/30 02:04:59;;;;;;;1.63;0.98;;;;;;;11.45;66.03;97041.31;4892929;28;20250;-80
2023/12/30 02:07:25;;;;;;;3.17;1.40;;;;;;;11.55;65.04;97041.38;4907496;28;20254;-80
2023/12/30 02:09:50;;;;;;;2.08;1.17;;;;;;;11.54;64.14;97042.41;4893875;28;20581;-79
2023/12/30 02:12:16;;;;;;;4.70;1.17;;;;;;;11.45;65.78;97056.97;4914335;28;20477;-80
2023/12/30 02:14:41;;;;;;;3.28;1.65;;;;;;;11.51;64.92;97066.38;4890077;28;20710;-79
2023/12/30 02:17:06;;;;;;;2.00;0.88;;;;;;;11.52;65.60;97069.78;4900914;28;20663;-79
2023/12/30 02:19:33;;;;;;;1.88;0.98;;;;;;;11.43;65.63;97065.03;4910825;28;20257;-79
2023/12/30 02:21:58;;;;;;;5.60;1.50;;;;;;;11.57;64.82;97065.38;4914257;28;20619;-81
2023/12/30 02:24:24;;;;;;;1.90;0.80;;;;;;;11.60;64.89;97056.25;4927160;28;20179;-80
2023/12/30 02:26:49;;;;;;;3.10;0.93;;;;;;;11.70;64.59;97058.91;4895099;28;20327;-80
2023/12/30 02:29:15;;;;;;;2.88;1.08;;;;;;;11.61;64.90;97061.22;4926708;28;20197;-80
2023/12/30 02:31:46;;;;;;;3.45;1.10;;;;;;;11.64;65.41;97065.16;4911894;28;20264;-80
2023/12/30 02:34:14;;;;;;;2.22;1.02;;;;;;;11.50;66.17;97058.81;4892904;28;20225;-80
2023/12/30 02:36:39;;;;;;;4.45;1.38;;;;;;;11.63;64.88;97063.56;4919342;28;20201;-79
2023/12/30 02:39:04;;;;;;;2.63;1.33;;;;;;;11.72;65.29;97063.88;4892050;28;20729;-80
2023/12/30 02:41:29;;;;;;;4.00;1.20;;;;;;;11.59;64.95;97065.91;4906715;28;20258;-80
2023/12/30 02:43:58;;;;;;;4.38;1.40;;;;;;;11.71;65.33;97078.75;4903302;28;20198;-79
2023/12/30 02:46:23;;;;;;;4.28;1.17;;;;;;;11.44;65.87;97066.59;4894288;28;20276;-79
2023/12/30 02:48:48;;;;;;;2.92;1.30;;;;;;;11.31;66.59;97063.66;4911774;28;20218;-80
2023/12/30 02:51:18;;;;;;;1.50;0.95;;;;;;;11.44;66.06;97071.03;4889725;28;20288;-79
2023/12/30 02:53:43;;;;;;;2.72;1.10;;;;;;;11.42;65.82;97075.72;4891303;28;20195;-80
2023/12/30 02:56:23;;;;;;;5.00;1.40;;;;;;;11.62;64.90;97075.06;4900452;28;20034;-80
2023/12/30 02:58:57;;;;;;;5.47;1.38;;;;;;;11.52;65.85;97077.59;4910449;28;20288;-80
2023/12/30 03:01:25;;;;;;;3.42;1.40;;;;;;;11.44;65.23;97071.81;4910630;28;20216;-79
2023/12/30 03:03:52;;;;;;;4.93;1.00;;;;;;;11.38;65.82;97074.66;4894178;28;20636;-79
2023/12/30 03:06:17;;;;;;;3.70;1.38;;;;;;;11.43;65.25;97070.25;4893620;28;20206;-79
2023/12/30 03:08:43;;;;;;;3.30;1.63;;;;;;;11.41;65.35;97076.75;4926094;28;20268;-81
2023/12/30 03:11:11;;;;;;;4.35;1.15;;;;;;;11.53;65.73;97073.94;4893304;28;20248;-79
2023/12/30 03:13:37;;;;;;;4.80;1.55;;;;;;;11.63;64.38;97074.00;4888528;28;20194;-80
2023/12/30 03:16:06;;;;;;;5.43;1.35;;;;;;;11.65;64.45;97066.69;4903999;28;20541;-81
2023/12/30 03:18:31;;;;;;;7.78;2.03;;;;;;;11.69;63.99;97067.78;4910034;28;20290;-80
2023/12/30 03:20:57;;;;;;;4.20;1.20;;;;;;;11.53;65.04;97060.91;4914659;28;20270;-79
2023/12/30 03:23:22;;;;;;;5.72;1.40;;;;;;;11.56;65.08;97063.78;4924225;28;20692;-79
2023/12/30 03:25:47;;;;;;;3.10;1.30;;;;;;;11.64;65.50;97080.03;4909970;28;20205;-80
2023/12/30 03:28:13;;;;;;;4.90;1.50;;;;;;;11.65;65.06;97071.16;4894145;28;20190;-79
2023/12/30 03:30:38;;;;;;;4.75;1.58;;;;;;;11.68;65.10;97070.66;4909838;28;20104;-80
2023/12/30 03:33:04;;;;;;;2.55;1.00;;;;;;;11.67;64.66;97067.25;4904184;28;20537;-80
2023/12/30 03:35:29;;;;;;;6.10;1.45;;;;;;;11.60;65.03;97069.28;4919825;28;20324;-79
2023/12/30 03:37:54;;;;;;;2.97;1.40;;;;;;;11.64;65.13;97070.38;4881983;28;20209;-79
2023/12/30 03:40:20;;;;;;;6.22;1.65;;;;;;;11.59;65.14;97060.69;4924860;28;20674;-79
2023/12/30 03:42:45;;;;;;;5.18;1.70;;;;;;;11.43;65.07;97069.47;4876472;28;20418;-79
2023/12/30 03:45:10;;;;;;;3.63;1.50;;;;;;;11.62;63.90;97056.81;4908684;28;20304;-80
2023/12/30 03:47:36;;;;;;;3.65;1.83;;;;;;;11.61;64.50;97074.25;4893552;28;20201;-79
2023/12/30 03:50:01;;;;;;;4.03;1.77;;;;;;;11.60;65.38;97067.47;4891413;28;20206;-79
2023/12/30 03:52:29;;;;;;;3.67;1.50;;;;;;;11.59;65.29;97071.13;4899179;28;20205;-79
2023/12/30 03:54:55;;;;;;;3.00;1.70;;;;;;;11.65;64.95;97078.97;4898642;28;20217;-79
2023/12/30 03:57:21;;;;;;;4.35;1.30;;;;;;;11.60;65.20;97079.72;4907222;28;20660;-79
2023/12/30 03:59:46;;;;;;;3.53;1.95;;;;;;;11.55;65.13;97074.47;4884518;28;20199;-80
2023/12/30 04:02:12;;;;;;;3.45;1.33;;;;;;;11.62;65.56;97090.69;4919047;28;20226;-79
2023/12/30 04:04:38;;;;;;;3.13;1.10;;;;;;;11.72;64.98;97076.91;4908071;28;20123;-79
2023/12/30 04:07:03;;;;;;;5.50;1.48;;;;;;;11.66;65.10;97086.53;4891956;28;20236;-80
2023/12/30 04:09:29;;;;;;;3.17;1.20;;;;;;;11.67;64.82;97080.31;4901184;28;20547;-80
2023/12/30 04:11:54;;;;;;;4.45;1.38;;;;;;;11.50;65.81;97084.88;4907132;28;20201;-79
2023/12/30 04:14:20;;;;;;;3.55;1.35;;;;;;;11.30;65.64;97096.75;4921743;28;20608;-79
2023/12/30 04:16:45;;;;;;;7.97;1.48;;;;;;;11.54;65.17;97096.38;4923806;28;20281;-80
2023/12/30 04:19:11;;;;;;;5.60;1.40;;;;;;;11.48;64.93;97102.59;4906785;28;20648;-80
2023/12/30 04:21:36;;;;;;;4.05;1.50;;;;;;;11.53;64.28;97092.19;4908679;28;20228;-79
2023/12/30 04:24:01;;;;;;;3.38;1.08;;;;;;;11.71;63.46;97091.00;4926073;28;20194;-79
2023/12/30 04:26:27;;;;;;;4.45;1.33;;;;;;;11.77;63.67;97085.56;4907491;28;20280;-79
2023/12/30 04:28:52;;;;;;;4.15;2.00;;;;;;;11.73;64.04;97097.53;4890594;28;21238;-79
2023/12/30 04:31:17;;;;;;;3.25;1.20;;;;;;;11.64;64.04;97093.06;4907314;28;20229;-81
2023/12/30 04:33:43;;;;;;;4.45;1.30;;;;;;;11.59;64.11;97105.00;4892004;28;20692;-79
2023/12/30 04:36:08;;;;;;;4.57;1.65;;;;;;;11.61;63.70;97107.38;4902383;28;20253;-79
2023/12/30 04:38:33;;;;;;;7.13;1.48;;;;;;;11.51;64.26;97109.91;4892221;28;20366;-80
2023/12/30 04:40:59;;;;;;;5.88;1.85;;;;;;;11.50;64.81;97105.72;4891870;28;20246;-81
2023/12/30 04:43:24;;;;;;;2.45;1.50;;;;;;;11.69;63.37;97101.69;4908077;28;20356;-79
2023/12/30 04:45:49;;;;;;;4.63;1.52;;;;;;;11.66;63.65;97104.81;4908142;28;20271;-80
2023/12/30 04:48:15;;;;;;;4.57;1.48;;;;;;;11.78;62.73;97097.56;4905878;28;20163;-80
2023/12/30 04:50:40;;;;;;;4.25;1.67;;;;;;;11.56;63.82;97102.91;4888402;28;20364;-79
2023/12/30 04:53:05;;;;;;;5.32;1.63;;;;;;;11.65;63.71;97102.44;4891408;28;20214;-80
2023/12/30 04:55:31;;;;;;;2.55;1.45;;;;;;;11.64;63.91;97106.88;4917494;28;20245;-79
2023/12/30 04:57:57;;;;;;;6.45;1.63;;;;;;;11.66;63.28;97104.03;4907485;28;20236;-80
2023/12/30 05:00:22;;;;;;;4.13;1.90;;;;;;;11.69;63.51;97114.72;4893664;28;20586;-81
2023/12/30 05:02:48;;;;;;;5.25;2.10;;;;;;;11.74;63.99;97114.75;4892691;28;20206;-81
2023/12/30 05:05:13;;;;;;;3.30;1.70;;;;;;;11.70;64.34;97105.84;4906909;28;20384;-81
2023/12/30 05:07:38;;;;;;;4.93;2.03;;;;;;;11.68;63.51;97118.38;4905809;28;20228;-80
2023/12/30 05:10:04;;;;;;;5.43;1.80;;;;;;;11.70;63.33;97115.50;4897589;28;20193;-81
2023/12/30 05:12:30;;;;;;;4.72;2.55;;;;;;;11.73;64.06;97110.56;4907055;28;20152;-80
2023/12/30 05:14:55;;;;;;;4.68;1.83;;;;;;;11.78;63.67;97123.63;4924613;28;20202;-80
2023/12/30 05:17:20;;;;;;;4.22;2.00;;;;;;;11.70;63.66;97128.56;4893290;28;20302;-80
2023/12/30 05:19:46;;;;;;;6.90;2.00;;;;;;;11.61;64.44;97123.03;4876469;28;20276;-80
2023/12/30 05:22:11;;;;;;;4.68;2.15;;;;;;;11.49;64.79;97117.22;4925913;28;20209;-80
2023/12/30 05:24:36;;;;;;;8.07;2.00;;;;;;;11.52;64.31;97130.53;4907664;28;20703;-78
2023/12/30 05:27:02;;;;;;;4.00;1.92;;;;;;;11.40;65.35;97130.72;4907374;28;20227;-80
2023/12/30 05:29:28;;;;;;;4.95;1.60;;;;;;;11.56;64.70;97133.44;4906848;28;20599;-78
2023/12/30 05:31:53;;;;;;;5.32;2.03;;;;;;;11.61;64.02;97130.84;4893143;28;20250;-78
2023/12/30 05:34:19;;;;;;;4.10;1.58;;;;;;;11.67;63.66;97136.88;4893967;28;20218;-78
2023/12/30 05:36:47;;;;;;;6.88;2.00;;;;;;;11.63;63.95;97136.59;4894986;28;20244;-78
2023/12/30 05:39:14;;;;;;;6.57;2.20;;;;;;;11.58;63.28;97121.72;4905454;28;20239;-78
2023/12/30 05:41:39;;;;;;;5.20;1.80;;;;;;;11.36;64.74;97121.84;4898273;28;20178;-78
2023/12/30 05:44:05;;;;;;;4.75;1.92;;;;;;;11.59;63.79;97130.31;4889476;28;20186;-78
2023/12/30 05:46:31;;;;;;;5.95;2.10;;;;;;;11.58;64.55;97119.13;4912150;28;20274;-77
2023/12/30 05:48:57;;;;;;;3.58;2.08;;;;;;;11.65;64.48;97118.88;4919110;28;20202;-78
2023/12/30 05:51:22;;;;;;;4.60;2.45;;;;;;;11.56;64.36;97133.44;4874489;28;20179;-78
2023/12/30 05:53:47;;;;;;;3.95;1.90;;;;;;;11.61;64.23;97128.25;4911895;28;20213;-78
2023/12/30 05:56:21;;;;;;;4.30;2.10;;;;;;;11.62;64.99;97132.44;4880293;28;20284;-79
2023/12/30 05:58:46;;;;;;;3.88;2.17;;;;;;;11.62;64.90;97135.81;4896531;28;20292;-79
2023/12/30 06:01:11;;;;;;;3.00;2.13;;;;;;;11.54;65.05;97125.84;4875480;28;20258;-79
2023/12/30 06:03:37;;;;;;;5.28;2.22;;;;;;;11.45;65.30;97127.38;4879318;28;20591;-79
2023/12/30 06:06:03;;;;;;;5.28;2.00;;;;;;;11.64;64.89;97138.16;4879910;28;20222;-78
2023/12/30 06:08:28;;;;;;;4.85;2.00;;;;;;;11.60;64.90;97144.91;4894855;28;20280;-79
2023/12/30 06:10:54;;;;;;;4.63;2.22;;;;;;;11.60;64.63;97142.31;4895402;28;20229;-79
2023/12/30 06:13:20;;;;;;;5.75;2.92;;;;;;;11.47;65.23;97148.75;4894610;28;20715;-78
2023/12/30 06:15:50;;;;;;;6.63;3.40;;;;;;;11.58;65.27;97155.63;4895300;28;20724;-79
2023/12/30 06:18:15;;;;;;;4.07;2.22;;;;;;;11.57;64.97;97158.47;4909987;28;20289;-79
2023/12/30 06:20:44;;;;;;;4.60;2.33;;;;;;;11.56;64.84;97155.06;4908520;28;20653;-78
2023/12/30 06:23:09;;;;;;;4.85;2.72;;;;;;;11.65;64.25;97162.41;4902109;28;20186;-79
2023/12/30 06:25:35;;;;;;;2.88;2.38;;;;;;;11.77;64.56;97166.44;4878776;28;20629;-79
2023/12/30 06:28:00;;;;;;;4.10;3.22;;;;;;;11.53;65.65;97157.38;4910692;28;20403;-78
2023/12/30 06:30:25;;;;;;;5.55;2.63;;;;;;;11.36;65.86;97162.72;4910028;28;20210;-78
2023/12/30 06:32:51;;;;;;;3.60;2.42;;;;;;;11.55;64.96;97170.94;4897461;28;20206;-78
2023/12/30 06:35:16;;;;;;;4.57;2.40;;;;;;;11.59;65.05;97159.00;4892955;28;20179;-78
2023/12/30 06:37:41;;;;;;;4.82;2.85;;;;;;;11.62;65.06;97168.94;4876940;28;20262;-78
2023/12/30 06:40:08;;;;;;;3.65;2.90;;;;;;;11.73;64.85;97172.38;4904495;28;20163;-78
2023/12/30 06:42:33;;;;;;;6.80;2.88;;;;;;;11.79;64.13;97187.06;4898055;28;20253;-78
2023/12/30 06:44:58;;;;;;;6.70;3.00;;;;;;;11.77;64.35;97179.47;4900912;28;20355;-77
2023/12/30 06:47:24;;;;;;;7.10;2.85;;;;;;;11.66;64.79;97171.81;4908473;28;20213;-78
2023/12/30 06:49:49;;;;;;;4.97;2.65;;;;;;;11.68;64.22;97164.53;4909725;28;20206;-78
2023/12/30 06:52:18;;;;;;;7.35;3.72;;;;;;;11.79;65.13;97179.22;4924473;28;20179;-78
2023/12/30 06:54:43;;;;;;;4.07;2.55;;;;;;;11.70;63.94;97171.06;4876681;28;20214;-78
2023/12/30 06:57:08;;;;;;;4.88;2.55;;;;;;;11.73;64.89;97173.16;4909718;28;20202;-78
2023/12/30 06:59:35;;;;;;;3.60;2.25;;;;;;;11.62;64.97;97176.75;4908711;28;20251;-78
2023/12/30 07:02:00;;;;;;;5.70;3.10;;;;;;;11.42;65.83;97177.41;4877810;28;20221;-78
2023/12/30 07:04:26;;;;;;;4.85;2.80;;;;;;;11.65;65.06;97175.47;4895384;28;20594;-80
2023/12/30 07:06:53;;;;;;;4.18;2.70;;;;;;;11.46;64.84;97180.28;4909720;28;20213;-79
2023/12/30 07:09:18;;;;;;;5.22;2.47;;;;;;;11.64;64.17;97190.34;4884546;28;20267;-79
2023/12/30 07:11:44;;;;;;;5.50;2.50;;;;;;;11.73;64.91;97191.44;4903169;28;20754;-79
2023/12/30 07:14:09;;;;;;;5.72;2.30;;;;;;;11.69;64.85;97198.19;4919473;28;20480;-79
2023/12/30 07:16:34;;;;;;;3.58;1.95;;;;;;;11.61;65.25;97196.03;4894817;28;20209;-79
2023/12/30 07:19:00;;;;;;;3.50;2.17;;;;;;;11.70;64.19;97204.97;4926778;28;20754;-77
2023/12/30 07:21:25;;;;;;;4.68;1.85;;;;;;;11.73;64.69;97207.06;4924073;28;20308;-80
2023/12/30 07:23:50;;;;;;;4.30;2.13;;;;;;;11.74;64.11;97203.44;4884565;28;20202;-79
2023/12/30 07:26:16;;;;;;;3.35;2.55;;;;;;;11.85;64.02;97213.94;4894448;28;20493;-79
2023/12/30 07:28:42;;;;;;;4.28;2.20;;;;;;;11.83;64.22;97205.59;4875247;28;20289;-79
2023/12/30 07:31:07;;;;;;;3.63;2.40;;;;;;;11.77;64.97;97212.56;4894323;28;20179;-79
2023/12/30 07:33:34;;;;;;;5.18;2.25;;;;;;;11.75;64.22;97207.59;4878875;28;20111;-78
2023/12/30 07:36:01;;;;;;;4.13;2.20;;;;;;;11.86;63.69;97202.47;4897392;28;20288;-78
2023/12/30 07:38:27;;;;;;;7.22;3.05;;;;;;;11.79;64.33;97200.88;4926532;28;20269;-79
2023/12/30 07:40:52;;;;;;;4.70;2.17;;;;;;;11.74;64.08;97216.50;4875636;28;20284;-79
2023/12/30 07:43:17;;;;;;;5.57;2.50;;;;;;;11.79;64.50;97207.91;4894740;28;20715;-79
2023/12/30 07:45:43;;;;;;;6.70;3.60;;;;;;;11.79;64.99;97213.91;4878462;28;20640;-79
2023/12/30 07:48:09;;;;;;;5.72;2.60;;;;;;;11.74;64.57;97205.28;4894310;28;20137;-79
2023/12/30 07:50:34;;;;;;;5.80;2.28;;;;;;;11.81;64.10;97213.66;4909177;28;20381;-79
2023/12/30 07:52:59;;;;;;;4.70;2.40;;;;;;;11.89;64.40;97223.63;4910288;28;20625;-79
2023/12/30 07:55:25;;;;;;;5.05;2.92;;;;;;;11.81;64.56;97224.09;4926675;28;20111;-78
2023/12/30 07:57:50;;;;;;;3.42;2.50;;;;;;;11.80;64.61;97225.91;4893648;28;20261;-78
2023/12/30 08:00:16;;;;;;;3.58;2.22;;;;;;;11.91;63.51;97226.00;4908720;28;20285;-78
2023/12/30 08:02:41;;;;;;;3.95;2.33;;;;;;;11.91;64.23;97226.81;4893045;28;20270;-78
2023/12/30 08:05:07;;;;;;;4.93;2.67;;;;;;;11.94;63.79;97228.09;4891928;28;20239;-79
2023/12/30 08:07:32;;;;;;;3.72;2.42;;;;;;;11.96;64.03;97229.44;4895382;28;20458;-78
2023/12/30 08:09:58;;;;;;;7.97;2.40;;;;;;;11.94;63.48;97220.28;4924754;28;20278;-79
2023/12/30 08:12:23;;;;;;;4.25;2.58;;;;;;;11.81;64.26;97222.28;4891472;28;20277;-79
2023/12/30 08:14:51;;;;;;;4.55;2.53;;;;;;;11.80;65.05;97220.69;4894447;28;20304;-79
2023/12/30 08:17:16;;;;;;;6.28;2.60;;;;;;;11.80;64.93;97223.28;4892983;28;20307;-80
2023/12/30 08:19:41;;;;;;;4.05;2.63;;;;;;;11.71;65.06;97222.19;4892565;28;20641;-79
2023/12/30 08:22:07;;;;;;;3.97;2.80;;;;;;;11.88;64.47;97222.06;4901594;28;20202;-78
2023/12/30 08:24:32;;;;;;;4.05;2.55;;;;;;;11.82;64.19;97223.03;4916214;28;20637;-77
2023/12/30 08:26:57;;;;;;;5.35;2.55;;;;;;;11.75;64.61;97222.47;4910404;28;20190;-78
2023/12/30 08:29:23;;;;;;;6.18;3.47;;;;;;;11.79;65.15;97218.34;4892835;28;20320;-78
2023/12/30 08:31:48;;;;;;;4.78;2.40;;;;;;;11.91;64.38;97205.94;4910442;28;20254;-78
2023/12/30 08:34:16;;;;;;;3.60;2.75;;;;;;;11.91;64.96;97218.97;4911041;28;20258;-79
2023/12/30 08:36:42;;;;;;;3.70;2.88;;;;;;;11.79;64.12;97219.13;4916351;28;20292;-79
2023/12/30 08:39:08;;;;;;;6.95;2.80;;;;;;;11.89;64.33;97207.97;4891963;28;20182;-79
2023/12/30 08:41:33;;;;;;;3.88;2.90;;;;;;;11.91;63.71;97224.19;4926764;28;20276;-79
2023/12/30 08:44:02;;;;;;;6.13;3.40;;;;;;;11.87;64.69;97222.31;4914461;28;20222;-79
2023/12/30 08:46:28;;;;;;;8.73;3.35;;;;;;;11.94;64.37;97234.13;4905820;28;20659;-79
2023/12/30 08:48:53;;;;;;;4.75;3.00;;;;;;;11.98;64.45;97226.59;4932231;28;20197;-79
2023/12/30 08:51:18;;;;;;;3.85;3.10;;;;;;;11.97;64.02;97219.78;4892615;28;20370;-78
2023/12/30 08:53:44;;;;;;;4.95;3.20;;;;;;;11.73;65.10;97225.34;4911236;28;20306;-78
2023/12/30 08:56:09;;;;;;;5.18;3.10;;;;;;;11.74;64.10;97226.91;4908105;28;20636;-78
2023/12/30 08:58:35;;;;;;;4.63;2.53;;;;;;;12.02;64.29;97222.44;4876222;28;20277;-78
2023/12/30 09:01:00;;;;;;;4.97;3.03;;;;;;;12.00;63.99;97224.50;4932426;28;20212;-79
2023/12/30 09:03:26;;;;;;;3.42;2.75;;;;;;;12.07;64.03;97227.69;4909612;28;20317;-79
2023/12/30 09:05:52;;;;;;;7.22;2.92;;;;;;;11.84;64.41;97226.22;4927366;28;20213;-79
2023/12/30 09:08:18;;;;;;;2.90;2.40;;;;;;;11.94;64.49;97230.72;4911305;28;20197;-79
2023/12/30 09:10:44;;;;;;;2.90;2.40;;;;;;;12.05;63.87;97231.59;4923190;28;20298;-79
2023/12/30 09:13:09;;;;;;;5.50;2.50;;;;;;;12.18;63.67;97234.53;4910032;28;20235;-79
2023/12/30 09:15:35;;;;;;;3.75;2.47;;;;;;;12.12;63.73;97232.94;4906946;28;20221;-78
2023/12/30 09:18:00;;;;;;;4.50;2.17;;;;;;;12.15;64.22;97229.03;4913009;28;20491;-79
2023/12/30 09:20:26;;;;;;;3.35;2.30;;;;;;;12.11;63.50;97231.34;4913192;28;20625;-78
2023/12/30 09:22:52;;;;;;;5.82;2.10;;;;;;;12.05;63.81;97236.81;4896535;28;20214;-79
2023/12/30 09:25:18;;;;;;;3.58;2.10;;;;;;;12.07;64.58;97248.56;4900485;28;20211;-79
2023/12/30 09:27:45;;;;;;;5.63;2.22;;;;;;;12.24;63.70;97248.41;4925540;28;20175;-78
2023/12/30 09:30:10;;;;;;;4.10;2.25;;;;;;;12.25;63.76;97241.34;4892199;28;20281;-78
2023/12/30 09:32:36;;;;;;;7.68;2.75;;;;;;;12.20;64.16;97239.50;4908334;28;20207;-77
2023/12/30 09:35:02;;;;;;;5.68;2.80;;;;;;;12.17;63.69;97243.41;4898736;28;20281;-78
2023/12/30 09:37:28;;;;;;;3.58;2.75;;;;;;;12.29;63.30;97255.47;4926471;28;20378;-79
2023/12/30 09:39:54;;;;;;;4.47;2.60;;;;;;;12.24;63.63;97252.84;4912797;28;20199;-79
2023/12/30 09:42:20;;;;;;;4.38;2.50;;;;;;;12.26;63.99;97254.16;4884562;28;20257;-79
2023/12/30 09:44:46;;;;;;;6.13;2.78;;;;;;;12.34;63.72;97256.28;4915656;28;20290;-79
2023/12/30 09:47:13;;;;;;;2.72;1.95;;;;;;;12.31;63.71;97258.63;4912138;28;20245;-79
2023/12/30 09:49:40;;;;;;;4.13;2.30;;;;;;;12.26;63.90;97258.59;4896243;28;20194;-78
2023/12/30 09:52:08;;;;;;;4.40;2.42;;;;;;;12.09;63.86;97263.97;4927845;28;20214;-79
2023/12/30 09:54:34;;;;;;;3.50;1.90;;;;;;;12.28;63.64;97265.13;4906063;28;20367;-79
2023/12/30 09:57:01;;;;;;;4.22;2.13;;;;;;;12.29;63.45;97260.69;4931863;28;20652;-79
2023/12/30 09:59:29;;;;;;;3.40;1.70;;;;;;;12.40;63.46;97272.75;4880257;28;20585;-79
2023/12/30 10:01:55;;;;;;;6.63;2.10;;;;;;;12.36;63.16;97267.25;4920973;28;20407;-79
2023/12/30 10:04:20;;;;;;;2.28;1.77;;;;;;;12.43;62.65;97266.25;4908892;28;20446;-78
2023/12/30 10:06:47;;;;;;;3.63;2.00;;;;;;;12.26;62.84;97264.59;4895561;28;20294;-78
2023/12/30 10:09:13;;;;;;;4.38;1.98;;;;;;;12.25;62.86;97275.28;4893325;28;20168;-78
2023/12/30 10:11:38;;;;;;;5.93;1.80;;;;;;;12.29;62.74;97268.53;4905675;28;20520;-78
2023/12/30 10:14:04;;;;;;;4.05;1.80;;;;;;;12.33;62.71;97278.19;4880112;28;20214;-79
2023/12/30 10:16:29;;;;;;;4.00;1.75;;;;;;;12.42;63.00;97278.50;4895222;28;20661;-78
2023/12/30 10:18:56;;;;;;;6.28;2.15;;;;;;;12.38;62.38;97269.63;4909124;28;20186;-78
2023/12/30 10:21:21;;;;;;;4.63;1.48;;;;;;;12.29;62.61;97263.31;4908968;28;20061;-78
2023/12/30 10:23:51;;;;;;;4.78;1.73;;;;;;;12.40;61.83;97259.69;4907780;28;20769;-78
2023/12/30 10:26:17;;;;;;;4.22;1.58;;;;;;;12.30;63.29;97259.66;4921583;28;20029;-78
2023/12/30 10:28:43;;;;;;;4.47;1.98;;;;;;;12.39;63.00;97258.16;4888716;28;20269;-78
2023/12/30 10:31:11;;;;;;;3.90;2.10;;;;;;;12.37;62.20;97254.97;4925150;28;20196;-78
2023/12/30 10:33:37;;;;;;;4.93;1.63;;;;;;;12.44;61.94;97239.88;4878004;28;20203;-78
2023/12/30 10:36:06;;;;;;;3.30;1.70;;;;;;;12.55;62.22;97251.94;4880347;28;20717;-78
2023/12/30 10:38:32;;;;;;;4.35;1.60;;;;;;;12.57;61.20;97258.75;4911133;28;20686;-78
2023/12/30 10:40:57;;;;;;;4.88;2.20;;;;;;;12.47;62.41;97252.41;4914926;28;20277;-78
2023/12/30 10:43:23;;;;;;;3.10;1.48;;;;;;;12.61;61.34;97254.56;4924088;28;20234;-78
2023/12/30 10:46:01;;;;;;;5.70;1.55;;;;;;;12.59;61.92;97254.03;4902728;28;20206;-78
2023/12/30 10:48:31;;;;;;;4.70;1.85;;;;;;;12.57;61.76;97251.69;4894552;28;20163;-78
2023/12/30 10:50:58;;;;;;;4.28;1.95;;;;;;;12.52;62.93;97256.88;4870869;28;20175;-79
2023/12/30 10:53:30;;;;;;;2.55;1.40;;;;;;;12.59;61.53;97256.66;4894836;28;20260;-79
2023/12/30 10:55:59;;;;;;;3.65;1.50;;;;;;;12.54;61.83;97253.00;4881317;28;20698;-79
2023/12/30 10:58:25;;;;;;;6.35;1.50;;;;;;;12.51;61.15;97252.72;4899625;28;20167;-79
2023/12/30 11:00:57;;;;;;;4.72;2.60;;;;;;;12.38;61.91;97248.72;4895421;28;20194;-77
2023/12/30 11:03:23;;;;;;;4.18;1.38;;;;;;;12.32;62.23;97247.94;4894326;28;20657;-77
2023/12/30 11:06:03;;;;;;;4.20;1.83;;;;;;;12.47;60.93;97249.81;4892936;28;20276;-78
2023/12/30 11:08:29;;;;;;;4.68;1.50;;;;;;;12.31;62.38;97245.56;4893187;28;20229;-77
2023/12/30 11:10:57;;;;;;;2.90;1.20;;;;;;;12.34;61.20;97245.84;4899125;28;20722;-78
2023/12/30 11:13:23;;;;;;;4.28;1.92;;;;;;;12.23;62.15;97246.03;4927449;28;20287;-78
2023/12/30 11:15:48;;;;;;;5.03;1.50;;;;;;;12.11;62.17;97236.56;4931802;28;20698;-78
2023/12/30 11:18:14;;;;;;;4.32;1.10;;;;;;;12.44;60.81;97244.31;4939974;28;20292;-78
2023/12/30 11:20:45;;;;;;;3.95;1.45;;;;;;;12.65;60.53;97245.19;4915502;28;20216;-79
2023/12/30 11:23:11;;;;;;;5.18;1.48;;;;;;;12.30;61.24;97244.78;4912064;28;20426;-79
2023/12/30 11:25:43;;;;;;;4.38;1.33;;;;;;;12.50;61.66;97251.91;4878339;28;20663;-79
2023/12/30 11:28:15;;;;;;;3.63;1.60;;;;;;;12.67;61.37;97250.94;4914198;28;20173;-78